sensor_id;sensor_type;location;lat;lon;timestamp;P1;durP1;ratioP1;P2;durP2;ratioP2
29906;SDS011;16776;50.958;10.994;2023-10-13T00:02:02;2.92;;;1.52;;
29906;SDS011;16776;50.958;10.994;2023-10-13T00:04:30;1.40;;;1.13;;
29906;SDS011;16776;50.958;10.994;2023-10-13T00:06:59;1.63;;;1.40;;
29906;SDS011;16776;50.958;10.994;2023-10-13T00:09:27;1.67;;;1.55;;
29906;SDS011;16776;50.958;10.994;2023-10-13T00:11:57;1.40;;;1.30;;
29906;SDS011;16776;50.958;10.994;2023-10-13T00:14:24;1.58;;;1.42;;
29906;SDS011;16776;50.958;10.994;2023-10-13T00:16:58;1.48;;;0.93;;
29906;SDS011;16776;50.958;10.994;2023-10-13T00:19:33;2.33;;;1.13;;
29906;SDS011;16776;50.958;10.994;2023-10-13T00:22:10;1.58;;;1.30;;
29906;SDS011;16776;50.958;10.994;2023-10-13T00:24:41;2.40;;;1.42;;
29906;SDS011;16776;50.958;10.994;2023-10-13T00:27:12;2.88;;;1.45;;
29906;SDS011;16776;50.958;10.994;2023-10-13T00:32:41;2.55;;;1.50;;
29906;SDS011;16776;50.958;10.994;2023-10-13T00:35:09;1.40;;;1.30;;
29906;SDS011;16776;50.958;10.994;2023-10-13T00:37:40;2.50;;;1.33;;
29906;SDS011;16776;50.958;10.994;2023-10-13T00:40:10;2.90;;;1.33;;
29906;SDS011;16776;50.958;10.994;2023-10-13T00:42:52;1.70;;;1.58;;
29906;SDS011;16776;50.958;10.994;2023-10-13T00:45:19;1.90;;;1.42;;
29906;SDS011;16776;50.958;10.994;2023-10-13T00:47:45;1.08;;;1.00;;
29906;SDS011;16776;50.958;10.994;2023-10-13T00:50:14;1.25;;;1.13;;
29906;SDS011;16776;50.958;10.994;2023-10-13T00:52:44;1.48;;;1.33;;
29906;SDS011;16776;50.958;10.994;2023-10-13T00:55:16;1.67;;;1.25;;
29906;SDS011;16776;50.958;10.994;2023-10-13T00:57:47;2.53;;;1.10;;
29906;SDS011;16776;50.958;10.994;2023-10-13T01:00:18;1.73;;;1.20;;
29906;SDS011;16776;50.958;10.994;2023-10-13T01:02:44;2.35;;;1.52;;
29906;SDS011;16776;50.958;10.994;2023-10-13T01:05:19;1.40;;;1.10;;
29906;SDS011;16776;50.958;10.994;2023-10-13T01:07:47;1.77;;;1.02;;
29906;SDS011;16776;50.958;10.994;2023-10-13T01:10:18;1.45;;;1.17;;
29906;SDS011;16776;50.958;10.994;2023-10-13T01:12:45;1.98;;;1.50;;
29906;SDS011;16776;50.958;10.994;2023-10-13T01:15:12;2.55;;;1.00;;
29906;SDS011;16776;50.958;10.994;2023-10-13T01:17:42;2.05;;;1.20;;
29906;SDS011;16776;50.958;10.994;2023-10-13T01:20:11;1.27;;;1.17;;
29906;SDS011;16776;50.958;10.994;2023-10-13T01:22:39;1.80;;;1.33;;
29906;SDS011;16776;50.958;10.994;2023-10-13T01:25:09;1.35;;;1.00;;
29906;SDS011;16776;50.958;10.994;2023-10-13T01:27:38;2.25;;;1.25;;
29906;SDS011;16776;50.958;10.994;2023-10-13T01:30:06;1.45;;;1.13;;
29906;SDS011;16776;50.958;10.994;2023-10-13T01:32:38;1.30;;;1.10;;
29906;SDS011;16776;50.958;10.994;2023-10-13T01:35:06;1.42;;;1.08;;
29906;SDS011;16776;50.958;10.994;2023-10-13T01:37:33;1.27;;;1.17;;
29906;SDS011;16776;50.958;10.994;2023-10-13T01:39:59;1.17;;;1.08;;
29906;SDS011;16776;50.958;10.994;2023-10-13T01:42:26;1.02;;;0.82;;
29906;SDS011;16776;50.958;10.994;2023-10-13T01:44:55;2.58;;;1.25;;
29906;SDS011;16776;50.958;10.994;2023-10-13T01:47:30;1.00;;;0.88;;
29906;SDS011;16776;50.958;10.994;2023-10-13T01:49:56;1.10;;;1.05;;
29906;SDS011;16776;50.958;10.994;2023-10-13T01:52:23;2.10;;;1.10;;
29906;SDS011;16776;50.958;10.994;2023-10-13T01:54:50;1.15;;;1.05;;
29906;SDS011;16776;50.958;10.994;2023-10-13T01:57:16;1.98;;;1.50;;
29906;SDS011;16776;50.958;10.994;2023-10-13T01:59:46;1.55;;;1.45;;
29906;SDS011;16776;50.958;10.994;2023-10-13T02:02:14;1.38;;;1.13;;
29906;SDS011;16776;50.958;10.994;2023-10-13T02:04:40;1.70;;;1.42;;
29906;SDS011;16776;50.958;10.994;2023-10-13T02:07:14;1.08;;;1.05;;
29906;SDS011;16776;50.958;10.994;2023-10-13T02:09:40;2.25;;;1.58;;
29906;SDS011;16776;50.958;10.994;2023-10-13T02:12:08;2.58;;;1.25;;
29906;SDS011;16776;50.958;10.994;2023-10-13T02:14:34;2.42;;;1.33;;
29906;SDS011;16776;50.958;10.994;2023-10-13T02:17:03;1.23;;;1.08;;
29906;SDS011;16776;50.958;10.994;2023-10-13T02:19:37;1.48;;;1.30;;
29906;SDS011;16776;50.958;10.994;2023-10-13T02:22:10;2.83;;;1.52;;
29906;SDS011;16776;50.958;10.994;2023-10-13T02:24:36;1.45;;;1.00;;
29906;SDS011;16776;50.958;10.994;2023-10-13T02:27:05;1.23;;;1.00;;
29906;SDS011;16776;50.958;10.994;2023-10-13T02:29:38;1.08;;;1.02;;
29906;SDS011;16776;50.958;10.994;2023-10-13T02:32:08;0.95;;;0.85;;
29906;SDS011;16776;50.958;10.994;2023-10-13T02:34:38;0.95;;;0.95;;
29906;SDS011;16776;50.958;10.994;2023-10-13T02:37:08;1.10;;;1.00;;
29906;SDS011;16776;50.958;10.994;2023-10-13T02:39:34;1.25;;;1.10;;
29906;SDS011;16776;50.958;10.994;2023-10-13T02:42:01;1.30;;;1.13;;
29906;SDS011;16776;50.958;10.994;2023-10-13T02:44:32;1.35;;;0.90;;
29906;SDS011;16776;50.958;10.994;2023-10-13T02:47:01;0.80;;;0.80;;
29906;SDS011;16776;50.958;10.994;2023-10-13T02:49:32;1.08;;;0.70;;
29906;SDS011;16776;50.958;10.994;2023-10-13T02:52:02;1.42;;;1.13;;
29906;SDS011;16776;50.958;10.994;2023-10-13T02:54:34;1.45;;;1.20;;
29906;SDS011;16776;50.958;10.994;2023-10-13T02:57:04;1.10;;;0.82;;
29906;SDS011;16776;50.958;10.994;2023-10-13T02:59:31;2.15;;;0.98;;
29906;SDS011;16776;50.958;10.994;2023-10-13T03:02:05;2.47;;;0.82;;
29906;SDS011;16776;50.958;10.994;2023-10-13T03:04:43;0.60;;;0.60;;
29906;SDS011;16776;50.958;10.994;2023-10-13T03:07:09;1.08;;;0.80;;
29906;SDS011;16776;50.958;10.994;2023-10-13T03:09:41;1.25;;;0.60;;
29906;SDS011;16776;50.958;10.994;2023-10-13T03:12:15;0.70;;;0.70;;
29906;SDS011;16776;50.958;10.994;2023-10-13T03:14:42;0.60;;;0.60;;
29906;SDS011;16776;50.958;10.994;2023-10-13T03:17:12;0.98;;;0.88;;
29906;SDS011;16776;50.958;10.994;2023-10-13T03:19:43;1.58;;;0.70;;
29906;SDS011;16776;50.958;10.994;2023-10-13T03:22:15;0.68;;;0.68;;
29906;SDS011;16776;50.958;10.994;2023-10-13T03:24:42;0.93;;;0.70;;
29906;SDS011;16776;50.958;10.994;2023-10-13T03:27:11;0.77;;;0.77;;
29906;SDS011;16776;50.958;10.994;2023-10-13T03:29:41;0.82;;;0.82;;
29906;SDS011;16776;50.958;10.994;2023-10-13T03:32:08;1.15;;;1.02;;
29906;SDS011;16776;50.958;10.994;2023-10-13T03:34:37;2.05;;;1.00;;
29906;SDS011;16776;50.958;10.994;2023-10-13T03:37:16;1.20;;;0.85;;
29906;SDS011;16776;50.958;10.994;2023-10-13T03:39:45;1.02;;;1.02;;
29906;SDS011;16776;50.958;10.994;2023-10-13T03:42:12;1.85;;;0.90;;
29906;SDS011;16776;50.958;10.994;2023-10-13T03:44:44;1.38;;;1.10;;
29906;SDS011;16776;50.958;10.994;2023-10-13T03:47:11;1.23;;;1.02;;
29906;SDS011;16776;50.958;10.994;2023-10-13T03:49:46;0.77;;;0.60;;
29906;SDS011;16776;50.958;10.994;2023-10-13T03:52:17;2.28;;;1.00;;
29906;SDS011;16776;50.958;10.994;2023-10-13T03:54:47;0.90;;;0.75;;
29906;SDS011;16776;50.958;10.994;2023-10-13T03:57:16;2.13;;;0.90;;
29906;SDS011;16776;50.958;10.994;2023-10-13T03:59:43;1.13;;;1.00;;
29906;SDS011;16776;50.958;10.994;2023-10-13T04:02:13;1.80;;;0.90;;
29906;SDS011;16776;50.958;10.994;2023-10-13T04:04:43;0.95;;;0.95;;
29906;SDS011;16776;50.958;10.994;2023-10-13T04:07:14;0.70;;;0.70;;
29906;SDS011;16776;50.958;10.994;2023-10-13T04:10:08;0.70;;;0.70;;
29906;SDS011;16776;50.958;10.994;2023-10-13T04:12:52;1.15;;;0.60;;
29906;SDS011;16776;50.958;10.994;2023-10-13T04:15:50;1.20;;;0.68;;
29906;SDS011;16776;50.958;10.994;2023-10-13T04:18:40;0.70;;;0.70;;
29906;SDS011;16776;50.958;10.994;2023-10-13T04:21:29;2.10;;;0.73;;
29906;SDS011;16776;50.958;10.994;2023-10-13T04:24:05;1.70;;;1.10;;
29906;SDS011;16776;50.958;10.994;2023-10-13T04:26:50;1.08;;;0.60;;
29906;SDS011;16776;50.958;10.994;2023-10-13T04:29:35;0.77;;;0.75;;
29906;SDS011;16776;50.958;10.994;2023-10-13T04:32:16;4.72;;;0.80;;
29906;SDS011;16776;50.958;10.994;2023-10-13T04:34:53;0.73;;;0.70;;
29906;SDS011;16776;50.958;10.994;2023-10-13T04:37:23;1.05;;;1.05;;
29906;SDS011;16776;50.958;10.994;2023-10-13T04:39:54;0.95;;;0.80;;
29906;SDS011;16776;50.958;10.994;2023-10-13T04:42:25;0.80;;;0.80;;
29906;SDS011;16776;50.958;10.994;2023-10-13T04:45:15;2.38;;;0.85;;
29906;SDS011;16776;50.958;10.994;2023-10-13T04:48:03;0.80;;;0.80;;
29906;SDS011;16776;50.958;10.994;2023-10-13T04:50:44;1.00;;;0.82;;
29906;SDS011;16776;50.958;10.994;2023-10-13T04:53:12;0.95;;;0.70;;
29906;SDS011;16776;50.958;10.994;2023-10-13T04:55:58;0.95;;;0.95;;
29906;SDS011;16776;50.958;10.994;2023-10-13T04:58:55;1.55;;;0.90;;
29906;SDS011;16776;50.958;10.994;2023-10-13T05:01:39;1.13;;;0.85;;
29906;SDS011;16776;50.958;10.994;2023-10-13T05:04:40;1.25;;;0.82;;
29906;SDS011;16776;50.958;10.994;2023-10-13T05:07:21;1.20;;;0.80;;
29906;SDS011;16776;50.958;10.994;2023-10-13T05:10:05;1.08;;;0.73;;
29906;SDS011;16776;50.958;10.994;2023-10-13T05:12:49;1.20;;;1.10;;
29906;SDS011;16776;50.958;10.994;2023-10-13T05:15:41;0.63;;;0.63;;
29906;SDS011;16776;50.958;10.994;2023-10-13T05:18:31;1.10;;;1.00;;
29906;SDS011;16776;50.958;10.994;2023-10-13T05:21:16;0.70;;;0.70;;
29906;SDS011;16776;50.958;10.994;2023-10-13T05:24:09;1.35;;;1.15;;
29906;SDS011;16776;50.958;10.994;2023-10-13T05:26:53;1.30;;;1.20;;
29906;SDS011;16776;50.958;10.994;2023-10-13T05:29:38;1.45;;;0.85;;
29906;SDS011;16776;50.958;10.994;2023-10-13T05:32:24;1.40;;;1.15;;
29906;SDS011;16776;50.958;10.994;2023-10-13T05:35:08;1.05;;;0.88;;
29906;SDS011;16776;50.958;10.994;2023-10-13T05:37:54;0.82;;;0.80;;
29906;SDS011;16776;50.958;10.994;2023-10-13T05:40:38;0.77;;;0.77;;
29906;SDS011;16776;50.958;10.994;2023-10-13T05:43:22;1.02;;;0.93;;
29906;SDS011;16776;50.958;10.994;2023-10-13T05:46:05;1.20;;;1.10;;
29906;SDS011;16776;50.958;10.994;2023-10-13T05:48:51;1.33;;;0.75;;
29906;SDS011;16776;50.958;10.994;2023-10-13T05:51:45;0.70;;;0.70;;
29906;SDS011;16776;50.958;10.994;2023-10-13T05:54:13;2.17;;;1.02;;
29906;SDS011;16776;50.958;10.994;2023-10-13T05:57:12;0.80;;;0.80;;
29906;SDS011;16776;50.958;10.994;2023-10-13T05:59:56;1.08;;;1.00;;
29906;SDS011;16776;50.958;10.994;2023-10-13T06:02:40;1.35;;;1.08;;
29906;SDS011;16776;50.958;10.994;2023-10-13T06:05:26;1.30;;;1.20;;
29906;SDS011;16776;50.958;10.994;2023-10-13T06:08:10;2.10;;;1.35;;
29906;SDS011;16776;50.958;10.994;2023-10-13T06:11:00;1.15;;;1.05;;
29906;SDS011;16776;50.958;10.994;2023-10-13T06:13:44;2.60;;;1.15;;
29906;SDS011;16776;50.958;10.994;2023-10-13T06:16:28;2.90;;;1.25;;
29906;SDS011;16776;50.958;10.994;2023-10-13T06:19:12;3.50;;;1.23;;
29906;SDS011;16776;50.958;10.994;2023-10-13T06:24:41;3.50;;;0.95;;
29906;SDS011;16776;50.958;10.994;2023-10-13T06:27:25;2.33;;;1.38;;
29906;SDS011;16776;50.958;10.994;2023-10-13T06:30:09;2.00;;;1.20;;
29906;SDS011;16776;50.958;10.994;2023-10-13T06:32:37;2.05;;;1.40;;
29906;SDS011;16776;50.958;10.994;2023-10-13T06:35:05;1.55;;;1.42;;
29906;SDS011;16776;50.958;10.994;2023-10-13T06:37:45;1.48;;;1.33;;
29906;SDS011;16776;50.958;10.994;2023-10-13T06:40:12;1.42;;;1.30;;
29906;SDS011;16776;50.958;10.994;2023-10-13T06:42:47;2.55;;;1.30;;
29906;SDS011;16776;50.958;10.994;2023-10-13T06:45:14;1.15;;;1.00;;
29906;SDS011;16776;50.958;10.994;2023-10-13T06:47:42;2.97;;;1.63;;
29906;SDS011;16776;50.958;10.994;2023-10-13T06:50:09;1.98;;;1.60;;
29906;SDS011;16776;50.958;10.994;2023-10-13T06:52:40;3.15;;;1.30;;
29906;SDS011;16776;50.958;10.994;2023-10-13T06:55:09;2.45;;;1.25;;
29906;SDS011;16776;50.958;10.994;2023-10-13T07:00:09;2.75;;;1.30;;
29906;SDS011;16776;50.958;10.994;2023-10-13T07:02:44;1.98;;;1.13;;
29906;SDS011;16776;50.958;10.994;2023-10-13T07:05:12;1.42;;;1.30;;
29906;SDS011;16776;50.958;10.994;2023-10-13T07:07:39;1.40;;;1.30;;
29906;SDS011;16776;50.958;10.994;2023-10-13T07:10:09;2.20;;;1.45;;
29906;SDS011;16776;50.958;10.994;2023-10-13T07:12:39;1.30;;;1.20;;
29906;SDS011;16776;50.958;10.994;2023-10-13T07:15:08;3.38;;;1.67;;
29906;SDS011;16776;50.958;10.994;2023-10-13T07:17:44;1.55;;;1.45;;
29906;SDS011;16776;50.958;10.994;2023-10-13T07:20:12;1.80;;;1.70;;
29906;SDS011;16776;50.958;10.994;2023-10-13T07:22:49;2.90;;;1.73;;
29906;SDS011;16776;50.958;10.994;2023-10-13T07:25:28;3.53;;;1.70;;
29906;SDS011;16776;50.958;10.994;2023-10-13T07:27:57;3.97;;;1.60;;
29906;SDS011;16776;50.958;10.994;2023-10-13T07:30:24;2.33;;;1.25;;
29906;SDS011;16776;50.958;10.994;2023-10-13T07:32:53;2.92;;;1.77;;
29906;SDS011;16776;50.958;10.994;2023-10-13T07:35:22;3.40;;;2.15;;
29906;SDS011;16776;50.958;10.994;2023-10-13T07:37:51;3.25;;;1.75;;
29906;SDS011;16776;50.958;10.994;2023-10-13T07:40:19;3.15;;;2.20;;
29906;SDS011;16776;50.958;10.994;2023-10-13T07:43:06;2.22;;;1.88;;
29906;SDS011;16776;50.958;10.994;2023-10-13T07:45:36;2.63;;;1.65;;
29906;SDS011;16776;50.958;10.994;2023-10-13T07:48:03;1.70;;;1.48;;
29906;SDS011;16776;50.958;10.994;2023-10-13T07:50:37;2.83;;;1.50;;
29906;SDS011;16776;50.958;10.994;2023-10-13T07:53:04;3.58;;;1.80;;
29906;SDS011;16776;50.958;10.994;2023-10-13T07:55:44;2.55;;;1.92;;
29906;SDS011;16776;50.958;10.994;2023-10-13T07:58:13;1.73;;;1.63;;
29906;SDS011;16776;50.958;10.994;2023-10-13T08:00:39;3.38;;;1.65;;
29906;SDS011;16776;50.958;10.994;2023-10-13T08:03:12;5.07;;;2.03;;
29906;SDS011;16776;50.958;10.994;2023-10-13T08:05:57;3.50;;;1.67;;
29906;SDS011;16776;50.958;10.994;2023-10-13T08:08:29;1.83;;;1.55;;
29906;SDS011;16776;50.958;10.994;2023-10-13T08:11:00;3.70;;;2.45;;
29906;SDS011;16776;50.958;10.994;2023-10-13T08:13:35;1.95;;;1.48;;
29906;SDS011;16776;50.958;10.994;2023-10-13T08:16:02;2.17;;;1.70;;
29906;SDS011;16776;50.958;10.994;2023-10-13T08:18:33;3.80;;;1.80;;
29906;SDS011;16776;50.958;10.994;2023-10-13T08:21:01;2.95;;;2.00;;
29906;SDS011;16776;50.958;10.994;2023-10-13T08:23:29;1.85;;;1.45;;
29906;SDS011;16776;50.958;10.994;2023-10-13T08:26:15;1.92;;;1.35;;
29906;SDS011;16776;50.958;10.994;2023-10-13T08:29:18;2.67;;;1.50;;
29906;SDS011;16776;50.958;10.994;2023-10-13T08:32:02;4.18;;;1.48;;
29906;SDS011;16776;50.958;10.994;2023-10-13T08:35:00;3.40;;;1.70;;
29906;SDS011;16776;50.958;10.994;2023-10-13T08:37:47;3.28;;;1.70;;
29906;SDS011;16776;50.958;10.994;2023-10-13T08:40:21;2.65;;;1.50;;
29906;SDS011;16776;50.958;10.994;2023-10-13T08:43:02;3.58;;;2.05;;
29906;SDS011;16776;50.958;10.994;2023-10-13T08:45:39;4.68;;;1.80;;
29906;SDS011;16776;50.958;10.994;2023-10-13T08:48:19;5.30;;;2.22;;
29906;SDS011;16776;50.958;10.994;2023-10-13T08:50:51;2.17;;;1.33;;
29906;SDS011;16776;50.958;10.994;2023-10-13T08:53:22;2.90;;;1.73;;
29906;SDS011;16776;50.958;10.994;2023-10-13T08:55:57;5.85;;;1.85;;
29906;SDS011;16776;50.958;10.994;2023-10-13T08:58:30;2.67;;;1.45;;
29906;SDS011;16776;50.958;10.994;2023-10-13T09:01:13;2.35;;;1.60;;
29906;SDS011;16776;50.958;10.994;2023-10-13T09:04:00;5.82;;;2.35;;
29906;SDS011;16776;50.958;10.994;2023-10-13T09:06:46;3.55;;;2.22;;
29906;SDS011;16776;50.958;10.994;2023-10-13T09:09:26;5.40;;;2.25;;
29906;SDS011;16776;50.958;10.994;2023-10-13T09:12:00;2.58;;;1.80;;
29906;SDS011;16776;50.958;10.994;2023-10-13T09:14:34;5.38;;;2.67;;
29906;SDS011;16776;50.958;10.994;2023-10-13T09:17:05;4.65;;;2.08;;
29906;SDS011;16776;50.958;10.994;2023-10-13T09:19:59;4.35;;;1.98;;
29906;SDS011;16776;50.958;10.994;2023-10-13T09:22:46;3.42;;;2.20;;
29906;SDS011;16776;50.958;10.994;2023-10-13T09:25:22;5.05;;;2.08;;
29906;SDS011;16776;50.958;10.994;2023-10-13T09:27:50;3.97;;;2.05;;
29906;SDS011;16776;50.958;10.994;2023-10-13T09:30:18;4.57;;;2.30;;
29906;SDS011;16776;50.958;10.994;2023-10-13T09:32:49;2.92;;;2.17;;
29906;SDS011;16776;50.958;10.994;2023-10-13T09:35:26;5.53;;;2.30;;
29906;SDS011;16776;50.958;10.994;2023-10-13T09:37:56;2.00;;;1.67;;
29906;SDS011;16776;50.958;10.994;2023-10-13T09:40:24;4.15;;;2.25;;
29906;SDS011;16776;50.958;10.994;2023-10-13T09:42:52;3.22;;;2.30;;
29906;SDS011;16776;50.958;10.994;2023-10-13T09:45:21;5.65;;;2.10;;
29906;SDS011;16776;50.958;10.994;2023-10-13T09:47:54;4.05;;;2.10;;
29906;SDS011;16776;50.958;10.994;2023-10-13T09:50:31;5.35;;;2.00;;
29906;SDS011;16776;50.958;10.994;2023-10-13T09:53:06;4.07;;;1.95;;
29906;SDS011;16776;50.958;10.994;2023-10-13T09:55:35;3.28;;;1.67;;
29906;SDS011;16776;50.958;10.994;2023-10-13T09:58:04;7.18;;;2.53;;
29906;SDS011;16776;50.958;10.994;2023-10-13T10:00:37;2.83;;;1.90;;
29906;SDS011;16776;50.958;10.994;2023-10-13T10:03:14;4.60;;;2.40;;
29906;SDS011;16776;50.958;10.994;2023-10-13T10:05:55;6.90;;;2.08;;
29906;SDS011;16776;50.958;10.994;2023-10-13T10:08:28;3.58;;;1.80;;
29906;SDS011;16776;50.958;10.994;2023-10-13T10:11:12;4.47;;;2.00;;
29906;SDS011;16776;50.958;10.994;2023-10-13T10:13:58;4.65;;;2.13;;
29906;SDS011;16776;50.958;10.994;2023-10-13T10:16:37;5.05;;;2.42;;
29906;SDS011;16776;50.958;10.994;2023-10-13T10:19:13;6.07;;;1.95;;
29906;SDS011;16776;50.958;10.994;2023-10-13T10:21:39;3.55;;;1.95;;
29906;SDS011;16776;50.958;10.994;2023-10-13T10:24:16;4.60;;;2.05;;
29906;SDS011;16776;50.958;10.994;2023-10-13T10:26:55;5.22;;;2.45;;
29906;SDS011;16776;50.958;10.994;2023-10-13T10:29:22;2.55;;;1.95;;
29906;SDS011;16776;50.958;10.994;2023-10-13T10:31:48;4.28;;;2.22;;
29906;SDS011;16776;50.958;10.994;2023-10-13T10:34:17;2.92;;;1.58;;
29906;SDS011;16776;50.958;10.994;2023-10-13T10:36:48;6.70;;;2.45;;
29906;SDS011;16776;50.958;10.994;2023-10-13T10:39:20;2.83;;;2.50;;
29906;SDS011;16776;50.958;10.994;2023-10-13T10:42:07;5.18;;;2.67;;
29906;SDS011;16776;50.958;10.994;2023-10-13T10:44:40;2.05;;;1.80;;
29906;SDS011;16776;50.958;10.994;2023-10-13T10:47:09;5.88;;;2.35;;
29906;SDS011;16776;50.958;10.994;2023-10-13T10:49:38;2.25;;;1.88;;
29906;SDS011;16776;50.958;10.994;2023-10-13T10:52:06;3.83;;;1.73;;
29906;SDS011;16776;50.958;10.994;2023-10-13T10:54:43;2.88;;;1.95;;
29906;SDS011;16776;50.958;10.994;2023-10-13T10:57:11;2.40;;;2.15;;
29906;SDS011;16776;50.958;10.994;2023-10-13T10:59:42;2.20;;;1.95;;
29906;SDS011;16776;50.958;10.994;2023-10-13T11:02:10;4.03;;;2.30;;
29906;SDS011;16776;50.958;10.994;2023-10-13T11:04:41;5.80;;;2.83;;
29906;SDS011;16776;50.958;10.994;2023-10-13T11:07:20;4.20;;;2.70;;
29906;SDS011;16776;50.958;10.994;2023-10-13T11:09:48;4.55;;;2.10;;
29906;SDS011;16776;50.958;10.994;2023-10-13T11:12:18;3.33;;;2.00;;
29906;SDS011;16776;50.958;10.994;2023-10-13T11:15:00;4.35;;;2.50;;
29906;SDS011;16776;50.958;10.994;2023-10-13T11:17:30;3.75;;;1.80;;
29906;SDS011;16776;50.958;10.994;2023-10-13T11:20:11;2.55;;;1.92;;
29906;SDS011;16776;50.958;10.994;2023-10-13T11:22:45;5.88;;;2.45;;
29906;SDS011;16776;50.958;10.994;2023-10-13T11:25:19;2.60;;;2.30;;
29906;SDS011;16776;50.958;10.994;2023-10-13T11:27:48;3.22;;;2.50;;
29906;SDS011;16776;50.958;10.994;2023-10-13T11:30:31;4.43;;;3.38;;
29906;SDS011;16776;50.958;10.994;2023-10-13T11:33:07;3.97;;;2.65;;
29906;SDS011;16776;50.958;10.994;2023-10-13T11:35:36;4.43;;;2.70;;
29906;SDS011;16776;50.958;10.994;2023-10-13T11:38:20;3.53;;;2.95;;
29906;SDS011;16776;50.958;10.994;2023-10-13T11:40:52;4.68;;;2.85;;
29906;SDS011;16776;50.958;10.994;2023-10-13T11:43:33;3.37;;;2.60;;
29906;SDS011;16776;50.958;10.994;2023-10-13T11:46:17;4.25;;;2.83;;
29906;SDS011;16776;50.958;10.994;2023-10-13T11:49:04;4.63;;;2.65;;
29906;SDS011;16776;50.958;10.994;2023-10-13T11:51:44;5.35;;;2.67;;
29906;SDS011;16776;50.958;10.994;2023-10-13T11:54:12;4.57;;;3.00;;
29906;SDS011;16776;50.958;10.994;2023-10-13T11:56:40;4.85;;;2.83;;
29906;SDS011;16776;50.958;10.994;2023-10-13T11:59:07;4.80;;;2.53;;
29906;SDS011;16776;50.958;10.994;2023-10-13T12:01:41;3.58;;;2.70;;
29906;SDS011;16776;50.958;10.994;2023-10-13T12:04:26;4.68;;;2.65;;
29906;SDS011;16776;50.958;10.994;2023-10-13T12:07:07;3.75;;;2.72;;
29906;SDS011;16776;50.958;10.994;2023-10-13T12:09:50;3.72;;;2.58;;
29906;SDS011;16776;50.958;10.994;2023-10-13T12:12:31;4.82;;;2.92;;
29906;SDS011;16776;50.958;10.994;2023-10-13T12:15:05;4.45;;;2.83;;
29906;SDS011;16776;50.958;10.994;2023-10-13T12:17:39;4.28;;;2.75;;
29906;SDS011;16776;50.958;10.994;2023-10-13T12:20:10;2.95;;;2.35;;
29906;SDS011;16776;50.958;10.994;2023-10-13T12:22:44;4.70;;;2.85;;
29906;SDS011;16776;50.958;10.994;2023-10-13T12:25:20;4.05;;;2.35;;
29906;SDS011;16776;50.958;10.994;2023-10-13T12:27:51;4.93;;;2.85;;
29906;SDS011;16776;50.958;10.994;2023-10-13T12:30:22;5.03;;;2.72;;
29906;SDS011;16776;50.958;10.994;2023-10-13T12:33:01;3.35;;;2.97;;
29906;SDS011;16776;50.958;10.994;2023-10-13T12:35:34;3.72;;;3.03;;
29906;SDS011;16776;50.958;10.994;2023-10-13T12:38:11;4.00;;;2.40;;
29906;SDS011;16776;50.958;10.994;2023-10-13T12:41:04;3.60;;;2.90;;
29906;SDS011;16776;50.958;10.994;2023-10-13T12:43:48;3.60;;;2.67;;
29906;SDS011;16776;50.958;10.994;2023-10-13T12:46:28;7.53;;;3.30;;
29906;SDS011;16776;50.958;10.994;2023-10-13T12:49:12;5.30;;;3.15;;
29906;SDS011;16776;50.958;10.994;2023-10-13T12:52:02;7.35;;;3.60;;
29906;SDS011;16776;50.958;10.994;2023-10-13T12:54:30;3.88;;;2.22;;
29906;SDS011;16776;50.958;10.994;2023-10-13T12:57:01;4.18;;;2.55;;
29906;SDS011;16776;50.958;10.994;2023-10-13T12:59:27;3.42;;;2.53;;
29906;SDS011;16776;50.958;10.994;2023-10-13T13:01:54;4.00;;;2.65;;
29906;SDS011;16776;50.958;10.994;2023-10-13T13:04:21;7.03;;;3.22;;
29906;SDS011;16776;50.958;10.994;2023-10-13T13:06:50;5.75;;;2.83;;
29906;SDS011;16776;50.958;10.994;2023-10-13T13:09:18;3.58;;;2.70;;
29906;SDS011;16776;50.958;10.994;2023-10-13T13:11:52;7.53;;;3.20;;
29906;SDS011;16776;50.958;10.994;2023-10-13T13:14:22;4.93;;;3.40;;
29906;SDS011;16776;50.958;10.994;2023-10-13T13:16:53;7.00;;;3.20;;
29906;SDS011;16776;50.958;10.994;2023-10-13T13:19:21;5.10;;;3.10;;
29906;SDS011;16776;50.958;10.994;2023-10-13T13:21:51;4.55;;;3.30;;
29906;SDS011;16776;50.958;10.994;2023-10-13T13:24:17;8.13;;;3.35;;
29906;SDS011;16776;50.958;10.994;2023-10-13T13:26:44;4.43;;;3.20;;
29906;SDS011;16776;50.958;10.994;2023-10-13T13:29:14;5.53;;;3.38;;
29906;SDS011;16776;50.958;10.994;2023-10-13T13:31:42;5.78;;;3.10;;
29906;SDS011;16776;50.958;10.994;2023-10-13T13:34:09;4.68;;;2.70;;
29906;SDS011;16776;50.958;10.994;2023-10-13T13:36:37;5.18;;;3.28;;
29906;SDS011;16776;50.958;10.994;2023-10-13T13:39:09;6.13;;;2.95;;
29906;SDS011;16776;50.958;10.994;2023-10-13T13:41:35;3.80;;;2.60;;
29906;SDS011;16776;50.958;10.994;2023-10-13T13:44:03;4.63;;;3.05;;
29906;SDS011;16776;50.958;10.994;2023-10-13T13:46:40;2.97;;;2.67;;
29906;SDS011;16776;50.958;10.994;2023-10-13T13:49:07;4.15;;;3.33;;
29906;SDS011;16776;50.958;10.994;2023-10-13T13:51:42;4.18;;;2.80;;
29906;SDS011;16776;50.958;10.994;2023-10-13T13:54:16;6.05;;;3.50;;
29906;SDS011;16776;50.958;10.994;2023-10-13T13:56:44;7.18;;;3.15;;
29906;SDS011;16776;50.958;10.994;2023-10-13T13:59:12;5.03;;;3.20;;
29906;SDS011;16776;50.958;10.994;2023-10-13T14:01:42;4.03;;;3.40;;
29906;SDS011;16776;50.958;10.994;2023-10-13T14:04:10;4.38;;;3.38;;
29906;SDS011;16776;50.958;10.994;2023-10-13T14:06:39;4.43;;;2.50;;
29906;SDS011;16776;50.958;10.994;2023-10-13T14:09:05;5.97;;;2.88;;
29906;SDS011;16776;50.958;10.994;2023-10-13T14:11:40;5.43;;;3.50;;
29906;SDS011;16776;50.958;10.994;2023-10-13T14:14:24;3.95;;;2.67;;
29906;SDS011;16776;50.958;10.994;2023-10-13T14:17:00;4.82;;;3.13;;
29906;SDS011;16776;50.958;10.994;2023-10-13T14:19:32;7.53;;;3.17;;
29906;SDS011;16776;50.958;10.994;2023-10-13T14:21:59;3.88;;;2.85;;
29906;SDS011;16776;50.958;10.994;2023-10-13T14:24:31;4.20;;;2.88;;
29906;SDS011;16776;50.958;10.994;2023-10-13T14:27:00;6.43;;;3.50;;
29906;SDS011;16776;50.958;10.994;2023-10-13T14:29:34;5.72;;;3.33;;
29906;SDS011;16776;50.958;10.994;2023-10-13T14:32:06;4.18;;;3.13;;
29906;SDS011;16776;50.958;10.994;2023-10-13T14:34:37;6.15;;;3.80;;
29906;SDS011;16776;50.958;10.994;2023-10-13T14:37:06;4.97;;;2.88;;
29906;SDS011;16776;50.958;10.994;2023-10-13T14:39:33;6.28;;;3.30;;
29906;SDS011;16776;50.958;10.994;2023-10-13T14:42:02;3.58;;;2.80;;
29906;SDS011;16776;50.958;10.994;2023-10-13T14:44:30;4.05;;;2.60;;
29906;SDS011;16776;50.958;10.994;2023-10-13T14:46:57;4.85;;;3.15;;
29906;SDS011;16776;50.958;10.994;2023-10-13T14:49:25;4.88;;;3.13;;
29906;SDS011;16776;50.958;10.994;2023-10-13T14:51:52;3.63;;;2.85;;
29906;SDS011;16776;50.958;10.994;2023-10-13T14:54:20;3.40;;;2.67;;
29906;SDS011;16776;50.958;10.994;2023-10-13T14:56:57;3.90;;;2.60;;
29906;SDS011;16776;50.958;10.994;2023-10-13T14:59:25;5.13;;;2.92;;
29906;SDS011;16776;50.958;10.994;2023-10-13T15:01:52;5.20;;;2.97;;
29906;SDS011;16776;50.958;10.994;2023-10-13T15:04:19;4.97;;;3.05;;
29906;SDS011;16776;50.958;10.994;2023-10-13T15:06:53;3.40;;;2.58;;
29906;SDS011;16776;50.958;10.994;2023-10-13T15:09:20;7.32;;;3.50;;
29906;SDS011;16776;50.958;10.994;2023-10-13T15:11:49;4.65;;;2.60;;
29906;SDS011;16776;50.958;10.994;2023-10-13T15:14:18;5.35;;;2.72;;
29906;SDS011;16776;50.958;10.994;2023-10-13T15:16:48;3.10;;;2.25;;
29906;SDS011;16776;50.958;10.994;2023-10-13T15:19:15;6.05;;;2.85;;
29906;SDS011;16776;50.958;10.994;2023-10-13T15:21:42;5.18;;;2.90;;